sensor_id;sensor_type;location;lat;lon;timestamp;pressure;altitude;pressure_sealevel;temperature;humidity
45255;BME280;30989;52.078;21.014;2022-11-24T00:01:15;163166.22;;;-2.23;100.00
45255;BME280;30989;52.078;21.014;2022-11-24T00:03:43;163191.44;;;-2.13;100.00
45255;BME280;30989;52.078;21.014;2022-11-24T00:06:11;163176.84;;;-2.19;100.00
45255;BME280;30989;52.078;21.014;2022-11-24T00:08:38;163183.47;;;-2.16;100.00
45255;BME280;30989;52.078;21.014;2022-11-24T00:11:06;163176.84;;;-2.19;100.00
45255;BME280;30989;52.078;21.014;2022-11-24T00:13:32;163171.53;;;-2.21;100.00
45255;BME280;30989;52.078;21.014;2022-11-24T00:18:45;163194.09;;;-2.12;100.00
45255;BME280;30989;52.078;21.014;2022-11-24T00:21:11;163202.06;;;-2.09;100.00
45255;BME280;30989;52.078;21.014;2022-11-24T00:23:37;163199.41;;;-2.10;100.00
45255;BME280;30989;52.078;21.014;2022-11-24T00:26:07;163207.38;;;-2.07;100.00
45255;BME280;30989;52.078;21.014;2022-11-24T00:28:33;163207.38;;;-2.07;100.00
45255;BME280;30989;52.078;21.014;2022-11-24T00:31:00;163204.72;;;-2.08;100.00
45255;BME280;30989;52.078;21.014;2022-11-24T00:33:25;163215.34;;;-2.04;100.00
45255;BME280;30989;52.078;21.014;2022-11-24T00:35:55;163187.47;;;-2.15;100.00
45255;BME280;30989;52.078;21.014;2022-11-24T00:38:21;163206.06;;;-2.08;100.00
45255;BME280;30989;52.078;21.014;2022-11-24T00:40:47;163207.38;;;-2.07;100.00
45255;BME280;30989;52.078;21.014;2022-11-24T00:43:12;163214.00;;;-2.05;100.00
45255;BME280;30989;52.078;21.014;2022-11-24T00:45:37;163216.66;;;-2.04;100.00
45255;BME280;30989;52.078;21.014;2022-11-24T00:48:03;163214.00;;;-2.05;100.00
45255;BME280;30989;52.078;21.014;2022-11-24T00:50:28;163207.38;;;-2.07;100.00
45255;BME280;30989;52.078;21.014;2022-11-24T00:52:54;163212.69;;;-2.05;100.00
45255;BME280;30989;52.078;21.014;2022-11-24T00:55:19;163203.41;;;-2.09;100.00
45255;BME280;30989;52.078;21.014;2022-11-24T00:57:45;163199.41;;;-2.10;100.00
45255;BME280;30989;52.078;21.014;2022-11-24T01:00:11;163194.09;;;-2.12;100.00
45255;BME280;30989;52.078;21.014;2022-11-24T01:02:38;163194.09;;;-2.12;100.00
45255;BME280;30989;52.078;21.014;2022-11-24T01:05:05;163206.06;;;-2.08;100.00
45255;BME280;30989;52.078;21.014;2022-11-24T01:07:30;163183.47;;;-2.16;100.00
45255;BME280;30989;52.078;21.014;2022-11-24T01:09:56;163194.09;;;-2.12;100.00
45255;BME280;30989;52.078;21.014;2022-11-24T01:12:21;163196.75;;;-2.11;100.00
45255;BME280;30989;52.078;21.014;2022-11-24T01:14:47;163203.41;;;-2.09;100.00
45255;BME280;30989;52.078;21.014;2022-11-24T01:17:12;163198.09;;;-2.11;100.00
45255;BME280;30989;52.078;21.014;2022-11-24T01:19:37;163199.41;;;-2.10;100.00
45255;BME280;30989;52.078;21.014;2022-11-24T01:22:03;163196.75;;;-2.11;100.00
45255;BME280;30989;52.078;21.014;2022-11-24T01:24:29;163207.38;;;-2.07;100.00
45255;BME280;30989;52.078;21.014;2022-11-24T01:26:54;163196.75;;;-2.11;100.00
45255;BME280;30989;52.078;21.014;2022-11-24T01:29:20;163199.41;;;-2.10;100.00
45255;BME280;30989;52.078;21.014;2022-11-24T01:31:45;163204.72;;;-2.08;100.00
45255;BME280;30989;52.078;21.014;2022-11-24T01:34:10;163206.06;;;-2.08;100.00
45255;BME280;30989;52.078;21.014;2022-11-24T01:36:37;163199.41;;;-2.10;100.00
45255;BME280;30989;52.078;21.014;2022-11-24T01:39:03;163202.06;;;-2.09;100.00
45255;BME280;30989;52.078;21.014;2022-11-24T01:41:29;163199.41;;;-2.10;100.00
45255;BME280;30989;52.078;21.014;2022-11-24T01:43:55;163194.09;;;-2.12;100.00
45255;BME280;30989;52.078;21.014;2022-11-24T01:46:31;163191.44;;;-2.13;100.00
45255;BME280;30989;52.078;21.014;2022-11-24T01:51:35;163172.88;;;-2.20;100.00
45255;BME280;30989;52.078;21.014;2022-11-24T01:54:14;163178.16;;;-2.18;100.00
45255;BME280;30989;52.078;21.014;2022-11-24T01:56:42;163175.50;;;-2.19;100.00
45255;BME280;30989;52.078;21.014;2022-11-24T01:59:11;163163.56;;;-2.24;100.00
45255;BME280;30989;52.078;21.014;2022-11-24T02:01:38;163178.16;;;-2.18;100.00
45255;BME280;30989;52.078;21.014;2022-11-24T02:04:06;163180.81;;;-2.17;100.00
45255;BME280;30989;52.078;21.014;2022-11-24T02:06:34;163184.81;;;-2.16;100.00
45255;BME280;30989;52.078;21.014;2022-11-24T02:09:13;163184.81;;;-2.16;100.00
45255;BME280;30989;52.078;21.014;2022-11-24T02:11:42;163174.19;;;-2.20;100.00
45255;BME280;30989;52.078;21.014;2022-11-24T02:14:11;163180.81;;;-2.17;100.00
45255;BME280;30989;52.078;21.014;2022-11-24T02:16:39;163186.13;;;-2.15;100.00
45255;BME280;30989;52.078;21.014;2022-11-24T02:21:46;163172.88;;;-2.20;100.00
45255;BME280;30989;52.078;21.014;2022-11-24T02:24:25;163186.13;;;-2.15;100.00
45255;BME280;30989;52.078;21.014;2022-11-24T02:26:54;163182.16;;;-2.17;100.00
45255;BME280;30989;52.078;21.014;2022-11-24T02:29:20;163195.44;;;-2.12;100.00
45255;BME280;30989;52.078;21.014;2022-11-24T02:31:51;163191.44;;;-2.13;100.00
45255;BME280;30989;52.078;21.014;2022-11-24T02:34:19;163170.22;;;-2.21;100.00
45255;BME280;30989;52.078;21.014;2022-11-24T02:36:44;163194.09;;;-2.12;100.00
45255;BME280;30989;52.078;21.014;2022-11-24T02:39:11;163191.44;;;-2.13;100.00
45255;BME280;30989;52.078;21.014;2022-11-24T02:41:39;163206.06;;;-2.08;100.00
45255;BME280;30989;52.078;21.014;2022-11-24T02:44:06;163199.41;;;-2.10;100.00
45255;BME280;30989;52.078;21.014;2022-11-24T02:46:32;163204.72;;;-2.08;100.00
45255;BME280;30989;52.078;21.014;2022-11-24T02:48:57;163207.38;;;-2.07;100.00
45255;BME280;30989;52.078;21.014;2022-11-24T02:51:23;163200.75;;;-2.10;100.00
45255;BME280;30989;52.078;21.014;2022-11-24T02:53:48;163207.38;;;-2.07;100.00
45255;BME280;30989;52.078;21.014;2022-11-24T02:56:14;163203.41;;;-2.09;100.00
45255;BME280;30989;52.078;21.014;2022-11-24T02:58:39;163199.41;;;-2.10;100.00
45255;BME280;30989;52.078;21.014;2022-11-24T03:01:05;163192.78;;;-2.13;100.00
45255;BME280;30989;52.078;21.014;2022-11-24T03:03:30;163188.78;;;-2.14;100.00
45255;BME280;30989;52.078;21.014;2022-11-24T03:05:56;163187.47;;;-2.15;100.00
45255;BME280;30989;52.078;21.014;2022-11-24T03:08:21;163191.44;;;-2.13;100.00
45255;BME280;30989;52.078;21.014;2022-11-24T03:10:47;163195.44;;;-2.12;100.00
45255;BME280;30989;52.078;21.014;2022-11-24T03:13:13;163191.44;;;-2.13;100.00
45255;BME280;30989;52.078;21.014;2022-11-24T03:15:39;163196.75;;;-2.11;100.00
45255;BME280;30989;52.078;21.014;2022-11-24T03:18:04;163188.78;;;-2.14;100.00
45255;BME280;30989;52.078;21.014;2022-11-24T03:20:30;163180.81;;;-2.17;100.00
45255;BME280;30989;52.078;21.014;2022-11-24T03:22:55;163180.81;;;-2.17;100.00
45255;BME280;30989;52.078;21.014;2022-11-24T03:25:21;163175.50;;;-2.19;100.00
45255;BME280;30989;52.078;21.014;2022-11-24T03:27:46;163168.88;;;-2.22;100.00
45255;BME280;30989;52.078;21.014;2022-11-24T03:30:13;163175.50;;;-2.19;100.00
45255;BME280;30989;52.078;21.014;2022-11-24T03:32:39;163154.28;;;-2.28;100.00
45255;BME280;30989;52.078;21.014;2022-11-24T03:35:07;163171.53;;;-2.21;100.00
45255;BME280;30989;52.078;21.014;2022-11-24T03:37:32;163158.25;;;-2.26;100.00
45255;BME280;30989;52.078;21.014;2022-11-24T03:39:58;163154.28;;;-2.28;100.00
45255;BME280;30989;52.078;21.014;2022-11-24T03:42:23;163162.25;;;-2.24;100.00
45255;BME280;30989;52.078;21.014;2022-11-24T03:44:49;163148.97;;;-2.30;100.00
45255;BME280;30989;52.078;21.014;2022-11-24T03:47:14;163162.25;;;-2.24;100.00
45255;BME280;30989;52.078;21.014;2022-11-24T03:49:40;163155.59;;;-2.27;100.00
45255;BME280;30989;52.078;21.014;2022-11-24T03:52:06;163156.94;;;-2.27;100.00
45255;BME280;30989;52.078;21.014;2022-11-24T03:54:31;163162.25;;;-2.24;100.00
45255;BME280;30989;52.078;21.014;2022-11-24T03:56:57;163163.56;;;-2.24;100.00
45255;BME280;30989;52.078;21.014;2022-11-24T03:59:22;163162.25;;;-2.24;100.00
45255;BME280;30989;52.078;21.014;2022-11-24T04:01:48;163143.66;;;-2.32;100.00
45255;BME280;30989;52.078;21.014;2022-11-24T04:04:14;163160.91;;;-2.25;100.00
45255;BME280;30989;52.078;21.014;2022-11-24T04:06:40;163160.91;;;-2.25;100.00
45255;BME280;30989;52.078;21.014;2022-11-24T04:09:06;163162.25;;;-2.24;100.00
45255;BME280;30989;52.078;21.014;2022-11-24T04:11:31;163147.63;;;-2.30;100.00
45255;BME280;30989;52.078;21.014;2022-11-24T04:14:15;163152.94;;;-2.28;100.00
45255;BME280;30989;52.078;21.014;2022-11-24T04:16:42;163145.00;;;-2.31;100.00
45255;BME280;30989;52.078;21.014;2022-11-24T04:19:08;163145.00;;;-2.31;100.00
45255;BME280;30989;52.078;21.014;2022-11-24T04:21:34;163146.31;;;-2.31;100.00
45255;BME280;30989;52.078;21.014;2022-11-24T04:23:59;163151.63;;;-2.29;100.00
45255;BME280;30989;52.078;21.014;2022-11-24T04:26:25;163167.56;;;-2.22;100.00
45255;BME280;30989;52.078;21.014;2022-11-24T04:28:50;163146.31;;;-2.31;100.00
45255;BME280;30989;52.078;21.014;2022-11-24T04:31:16;163168.88;;;-2.22;100.00
45255;BME280;30989;52.078;21.014;2022-11-24T04:33:42;163172.88;;;-2.20;100.00
45255;BME280;30989;52.078;21.014;2022-11-24T04:36:08;163176.84;;;-2.19;100.00
45255;BME280;30989;52.078;21.014;2022-11-24T04:38:33;163160.91;;;-2.25;100.00
45255;BME280;30989;52.078;21.014;2022-11-24T04:41:02;163180.81;;;-2.17;100.00
45255;BME280;30989;52.078;21.014;2022-11-24T04:43:29;163171.53;;;-2.21;100.00
45255;BME280;30989;52.078;21.014;2022-11-24T04:45:55;163178.16;;;-2.18;100.00
45255;BME280;30989;52.078;21.014;2022-11-24T04:48:20;163182.16;;;-2.17;100.00
45255;BME280;30989;52.078;21.014;2022-11-24T04:50:46;163184.81;;;-2.16;100.00
45255;BME280;30989;52.078;21.014;2022-11-24T04:53:12;163184.81;;;-2.16;100.00
45255;BME280;30989;52.078;21.014;2022-11-24T04:55:38;163178.16;;;-2.18;100.00
45255;BME280;30989;52.078;21.014;2022-11-24T04:58:07;163190.13;;;-2.14;100.00
45255;BME280;30989;52.078;21.014;2022-11-24T05:00:33;163191.44;;;-2.13;100.00
45255;BME280;30989;52.078;21.014;2022-11-24T05:02:59;163187.47;;;-2.15;100.00
45255;BME280;30989;52.078;21.014;2022-11-24T05:05:24;163194.09;;;-2.12;100.00
45255;BME280;30989;52.078;21.014;2022-11-24T05:07:50;163196.75;;;-2.11;100.00
45255;BME280;30989;52.078;21.014;2022-11-24T05:10:16;163202.06;;;-2.09;100.00
45255;BME280;30989;52.078;21.014;2022-11-24T05:13:05;163204.72;;;-2.08;100.00
45255;BME280;30989;52.078;21.014;2022-11-24T05:15:31;163207.38;;;-2.07;100.00
45255;BME280;30989;52.078;21.014;2022-11-24T05:17:56;163206.06;;;-2.08;100.00
45255;BME280;30989;52.078;21.014;2022-11-24T05:20:22;163194.09;;;-2.12;100.00
45255;BME280;30989;52.078;21.014;2022-11-24T05:22:48;163182.16;;;-2.17;100.00
45255;BME280;30989;52.078;21.014;2022-11-24T05:25:14;163184.81;;;-2.16;100.00
45255;BME280;30989;52.078;21.014;2022-11-24T05:27:40;163188.78;;;-2.14;100.00
45255;BME280;30989;52.078;21.014;2022-11-24T05:30:06;163186.13;;;-2.15;100.00
45255;BME280;30989;52.078;21.014;2022-11-24T05:32:32;163183.47;;;-2.16;100.00
45255;BME280;30989;52.078;21.014;2022-11-24T05:34:57;163170.22;;;-2.21;100.00
45255;BME280;30989;52.078;21.014;2022-11-24T05:37:27;163171.53;;;-2.21;100.00
45255;BME280;30989;52.078;21.014;2022-11-24T05:39:53;163164.91;;;-2.23;100.00
45255;BME280;30989;52.078;21.014;2022-11-24T05:42:19;163163.56;;;-2.24;100.00
45255;BME280;30989;52.078;21.014;2022-11-24T05:45:03;163174.19;;;-2.20;100.00
45255;BME280;30989;52.078;21.014;2022-11-24T05:47:29;163170.22;;;-2.21;100.00
45255;BME280;30989;52.078;21.014;2022-11-24T05:49:54;163167.56;;;-2.22;100.00
45255;BME280;30989;52.078;21.014;2022-11-24T05:52:20;163156.94;;;-2.27;100.00
45255;BME280;30989;52.078;21.014;2022-11-24T05:54:46;163156.94;;;-2.27;100.00
45255;BME280;30989;52.078;21.014;2022-11-24T05:57:11;163154.28;;;-2.28;100.00
45255;BME280;30989;52.078;21.014;2022-11-24T05:59:37;163163.56;;;-2.24;100.00
45255;BME280;30989;52.078;21.014;2022-11-24T06:02:03;163172.88;;;-2.20;100.00
45255;BME280;30989;52.078;21.014;2022-11-24T06:04:28;163174.19;;;-2.20;100.00
45255;BME280;30989;52.078;21.014;2022-11-24T06:06:54;163162.25;;;-2.24;100.00
45255;BME280;30989;52.078;21.014;2022-11-24T06:09:19;163176.84;;;-2.19;100.00
45255;BME280;30989;52.078;21.014;2022-11-24T06:11:46;163175.50;;;-2.19;100.00
45255;BME280;30989;52.078;21.014;2022-11-24T06:14:12;163175.50;;;-2.19;100.00
45255;BME280;30989;52.078;21.014;2022-11-24T06:16:37;163170.22;;;-2.21;100.00
45255;BME280;30989;52.078;21.014;2022-11-24T06:19:03;163175.50;;;-2.19;100.00
45255;BME280;30989;52.078;21.014;2022-11-24T06:21:28;163152.94;;;-2.28;100.00
45255;BME280;30989;52.078;21.014;2022-11-24T06:23:54;163167.56;;;-2.22;100.00
45255;BME280;30989;52.078;21.014;2022-11-24T06:26:20;163178.16;;;-2.18;100.00
45255;BME280;30989;52.078;21.014;2022-11-24T06:28:45;163179.50;;;-2.18;100.00
45255;BME280;30989;52.078;21.014;2022-11-24T06:31:10;163175.50;;;-2.19;100.00
45255;BME280;30989;52.078;21.014;2022-11-24T06:33:37;163191.44;;;-2.13;100.00
45255;BME280;30989;52.078;21.014;2022-11-24T06:36:05;163195.44;;;-2.12;100.00
45255;BME280;30989;52.078;21.014;2022-11-24T06:38:33;163202.06;;;-2.09;100.00
45255;BME280;30989;52.078;21.014;2022-11-24T06:41:05;163212.69;;;-2.05;100.00
45255;BME280;30989;52.078;21.014;2022-11-24T06:43:32;163221.97;;;-2.02;100.00
45255;BME280;30989;52.078;21.014;2022-11-24T06:45:58;163224.63;;;-2.01;100.00
45255;BME280;30989;52.078;21.014;2022-11-24T06:48:24;163224.63;;;-2.01;100.00
45255;BME280;30989;52.078;21.014;2022-11-24T06:50:50;163224.63;;;-2.01;100.00
45255;BME280;30989;52.078;21.014;2022-11-24T06:53:16;163237.91;;;-1.96;100.00
45255;BME280;30989;52.078;21.014;2022-11-24T06:55:42;163236.59;;;-1.96;100.00
45255;BME280;30989;52.078;21.014;2022-11-24T06:58:08;163240.56;;;-1.95;100.00
45255;BME280;30989;52.078;21.014;2022-11-24T07:00:33;163244.56;;;-1.93;100.00
45255;BME280;30989;52.078;21.014;2022-11-24T07:02:59;163244.56;;;-1.93;100.00
45255;BME280;30989;52.078;21.014;2022-11-24T07:05:25;163243.22;;;-1.93;100.00
45255;BME280;30989;52.078;21.014;2022-11-24T07:07:51;163249.88;;;-1.91;100.00
45255;BME280;30989;52.078;21.014;2022-11-24T07:10:16;163251.19;;;-1.90;100.00
45255;BME280;30989;52.078;21.014;2022-11-24T07:12:42;163253.84;;;-1.89;100.00
45255;BME280;30989;52.078;21.014;2022-11-24T07:15:08;163249.88;;;-1.91;100.00
45255;BME280;30989;52.078;21.014;2022-11-24T07:17:35;163255.19;;;-1.89;100.00
45255;BME280;30989;52.078;21.014;2022-11-24T07:20:02;163247.22;;;-1.92;100.00
45255;BME280;30989;52.078;21.014;2022-11-24T07:22:28;163260.47;;;-1.87;100.00
45255;BME280;30989;52.078;21.014;2022-11-24T07:24:54;163225.97;;;-2.00;100.00
45255;BME280;30989;52.078;21.014;2022-11-24T07:27:19;163260.47;;;-1.87;100.00
45255;BME280;30989;52.078;21.014;2022-11-24T07:29:45;163256.50;;;-1.88;100.00
45255;BME280;30989;52.078;21.014;2022-11-24T07:32:10;163264.47;;;-1.85;100.00
45255;BME280;30989;52.078;21.014;2022-11-24T07:34:36;163252.53;;;-1.90;100.00
45255;BME280;30989;52.078;21.014;2022-11-24T07:37:01;163271.09;;;-1.83;100.00
45255;BME280;30989;52.078;21.014;2022-11-24T07:39:27;163264.47;;;-1.85;100.00
45255;BME280;30989;52.078;21.014;2022-11-24T07:41:52;163263.13;;;-1.86;100.00
45255;BME280;30989;52.078;21.014;2022-11-24T07:44:17;163273.75;;;-1.82;100.00
45255;BME280;30989;52.078;21.014;2022-11-24T07:46:43;163276.41;;;-1.81;100.00
45255;BME280;30989;52.078;21.014;2022-11-24T07:49:08;163279.06;;;-1.80;100.00
45255;BME280;30989;52.078;21.014;2022-11-24T07:51:34;163283.06;;;-1.78;100.00
45255;BME280;30989;52.078;21.014;2022-11-24T07:54:01;163291.03;;;-1.75;100.00
45255;BME280;30989;52.078;21.014;2022-11-24T07:56:26;163312.28;;;-1.67;100.00
45255;BME280;30989;52.078;21.014;2022-11-24T07:58:52;163332.19;;;-1.59;100.00
45255;BME280;30989;52.078;21.014;2022-11-24T08:01:17;163336.19;;;-1.58;100.00
45255;BME280;30989;52.078;21.014;2022-11-24T08:03:44;163344.16;;;-1.55;100.00
45255;BME280;30989;52.078;21.014;2022-11-24T08:06:10;163360.09;;;-1.49;100.00
45255;BME280;30989;52.078;21.014;2022-11-24T08:08:36;163349.47;;;-1.53;100.00
45255;BME280;30989;52.078;21.014;2022-11-24T08:11:07;163353.44;;;-1.51;100.00
45255;BME280;30989;52.078;21.014;2022-11-24T08:13:34;163361.41;;;-1.48;100.00
45255;BME280;30989;52.078;21.014;2022-11-24T08:16:06;163362.75;;;-1.48;100.00
45255;BME280;30989;52.078;21.014;2022-11-24T08:18:33;163370.72;;;-1.45;100.00
45255;BME280;30989;52.078;21.014;2022-11-24T08:20:59;163368.06;;;-1.46;100.00
45255;BME280;30989;52.078;21.014;2022-11-24T08:23:25;163364.06;;;-1.47;100.00
45255;BME280;30989;52.078;21.014;2022-11-24T08:25:50;163369.38;;;-1.45;100.00
45255;BME280;30989;52.078;21.014;2022-11-24T08:28:16;163369.38;;;-1.45;100.00
45255;BME280;30989;52.078;21.014;2022-11-24T08:30:41;163361.41;;;-1.48;100.00
45255;BME280;30989;52.078;21.014;2022-11-24T08:33:07;163352.13;;;-1.52;100.00
45255;BME280;30989;52.078;21.014;2022-11-24T08:35:36;163350.78;;;-1.52;100.00
45255;BME280;30989;52.078;21.014;2022-11-24T08:38:03;163348.13;;;-1.53;100.00
45255;BME280;30989;52.078;21.014;2022-11-24T08:40:28;163342.81;;;-1.55;100.00
45255;BME280;30989;52.078;21.014;2022-11-24T08:43:00;163352.13;;;-1.52;100.00
45255;BME280;30989;52.078;21.014;2022-11-24T08:45:27;163356.09;;;-1.50;100.00
45255;BME280;30989;52.078;21.014;2022-11-24T08:47:53;163369.38;;;-1.45;100.00
45255;BME280;30989;52.078;21.014;2022-11-24T08:50:20;163377.34;;;-1.42;100.00
45255;BME280;30989;52.078;21.014;2022-11-24T08:52:45;163385.31;;;-1.39;100.00
45255;BME280;30989;52.078;21.014;2022-11-24T08:55:11;163401.25;;;-1.33;100.00
45255;BME280;30989;52.078;21.014;2022-11-24T08:57:37;163419.84;;;-1.26;100.00
45255;BME280;30989;52.078;21.014;2022-11-24T09:00:03;163417.19;;;-1.27;100.00
45255;BME280;30989;52.078;21.014;2022-11-24T09:02:29;163417.19;;;-1.27;100.00
45255;BME280;30989;52.078;21.014;2022-11-24T09:04:54;163434.47;;;-1.20;100.00
45255;BME280;30989;52.078;21.014;2022-11-24T09:07:20;163438.44;;;-1.19;100.00
45255;BME280;30989;52.078;21.014;2022-11-24T09:09:45;163429.16;;;-1.22;100.00
45255;BME280;30989;52.078;21.014;2022-11-24T09:12:11;163417.19;;;-1.27;100.00
45255;BME280;30989;52.078;21.014;2022-11-24T09:14:36;163419.84;;;-1.26;100.00
45255;BME280;30989;52.078;21.014;2022-11-24T09:17:02;163423.84;;;-1.24;100.00
45255;BME280;30989;52.078;21.014;2022-11-24T09:19:28;163426.50;;;-1.23;100.00
45255;BME280;30989;52.078;21.014;2022-11-24T09:21:53;163414.53;;;-1.28;100.00
45255;BME280;30989;52.078;21.014;2022-11-24T09:24:19;163421.19;;;-1.25;100.00
45255;BME280;30989;52.078;21.014;2022-11-24T09:26:44;163426.50;;;-1.23;100.00
45255;BME280;30989;52.078;21.014;2022-11-24T09:29:10;163429.16;;;-1.22;100.00
45255;BME280;30989;52.078;21.014;2022-11-24T09:31:37;163418.53;;;-1.26;100.00
45255;BME280;30989;52.078;21.014;2022-11-24T09:34:06;163423.84;;;-1.24;100.00
45255;BME280;30989;52.078;21.014;2022-11-24T09:36:32;163435.78;;;-1.20;100.00
45255;BME280;30989;52.078;21.014;2022-11-24T09:38:58;163443.75;;;-1.17;100.00
45255;BME280;30989;52.078;21.014;2022-11-24T09:52:39;163467.69;;;-1.08;100.00
45255;BME280;30989;52.078;21.014;2022-11-24T09:55:23;163462.38;;;-1.10;100.00
45255;BME280;30989;52.078;21.014;2022-11-24T09:57:58;163435.78;;;-1.20;100.00
45255;BME280;30989;52.078;21.014;2022-11-24T10:00:26;163427.81;;;-1.23;100.00
45255;BME280;30989;52.078;21.014;2022-11-24T10:02:51;163429.16;;;-1.22;100.00
45255;BME280;30989;52.078;21.014;2022-11-24T10:05:18;163417.19;;;-1.27;100.00
45255;BME280;30989;52.078;21.014;2022-11-24T10:08:05;163446.41;;;-1.16;100.00
45255;BME280;30989;52.078;21.014;2022-11-24T10:10:58;163447.75;;;-1.15;100.00
45255;BME280;30989;52.078;21.014;2022-11-24T10:16:33;163483.63;;;-1.02;100.00
45255;BME280;30989;52.078;21.014;2022-11-24T10:22:29;163512.84;;;-0.90;100.00
45255;BME280;30989;52.078;21.014;2022-11-24T10:25:20;163523.47;;;-0.86;100.00
45255;BME280;30989;52.078;21.014;2022-11-24T10:27:54;163540.75;;;-0.80;100.00
45255;BME280;30989;52.078;21.014;2022-11-24T10:30:22;163531.47;;;-0.83;100.00
45255;BME280;30989;52.078;21.014;2022-11-24T10:32:53;163511.53;;;-0.91;100.00
45255;BME280;30989;52.078;21.014;2022-11-24T10:35:22;163502.22;;;-0.94;100.00
45255;BME280;30989;52.078;21.014;2022-11-24T10:37:54;163482.28;;;-1.02;100.00
45255;BME280;30989;52.078;21.014;2022-11-24T10:40:40;163491.59;;;-0.99;100.00
45255;BME280;30989;52.078;21.014;2022-11-24T10:43:09;163486.28;;;-1.01;100.00
45255;BME280;30989;52.078;21.014;2022-11-24T10:45:36;163482.28;;;-1.02;100.00
45255;BME280;30989;52.078;21.014;2022-11-24T10:48:24;163484.94;;;-1.01;100.00
45255;BME280;30989;52.078;21.014;2022-11-24T10:50:52;163483.63;;;-1.02;100.00
45255;BME280;30989;52.078;21.014;2022-11-24T10:53:22;163502.22;;;-0.94;100.00
45255;BME280;30989;52.078;21.014;2022-11-24T10:55:58;163508.88;;;-0.92;100.00
45255;BME280;30989;52.078;21.014;2022-11-24T10:58:33;163516.84;;;-0.89;100.00
45255;BME280;30989;52.078;21.014;2022-11-24T11:01:22;163520.81;;;-0.87;100.00
45255;BME280;30989;52.078;21.014;2022-11-24T11:03:54;163526.16;;;-0.85;100.00
45255;BME280;30989;52.078;21.014;2022-11-24T11:06:23;163530.13;;;-0.84;100.00
45255;BME280;30989;52.078;21.014;2022-11-24T11:11:36;163536.78;;;-0.81;100.00
45255;BME280;30989;52.078;21.014;2022-11-24T11:14:09;163556.69;;;-0.74;100.00
45255;BME280;30989;52.078;21.014;2022-11-24T11:16:41;163555.38;;;-0.74;100.00
45255;BME280;30989;52.078;21.014;2022-11-24T11:19:38;163536.78;;;-0.81;100.00
45255;BME280;30989;52.078;21.014;2022-11-24T11:24:37;163515.50;;;-0.89;100.00
45255;BME280;30989;52.078;21.014;2022-11-24T11:27:15;163515.50;;;-0.89;100.00
45255;BME280;30989;52.078;21.014;2022-11-24T11:29:41;163502.22;;;-0.94;100.00
45255;BME280;30989;52.078;21.014;2022-11-24T11:32:21;163515.50;;;-0.89;100.00
45255;BME280;30989;52.078;21.014;2022-11-24T11:34:48;163522.16;;;-0.87;100.00
45255;BME280;30989;52.078;21.014;2022-11-24T11:37:15;163520.81;;;-0.87;100.00
45255;BME280;30989;52.078;21.014;2022-11-24T11:39:47;163495.56;;;-0.97;100.00
45255;BME280;30989;52.078;21.014;2022-11-24T11:47:30;163498.25;;;-0.96;100.00
45255;BME280;30989;52.078;21.014;2022-11-24T11:49:58;163498.25;;;-0.96;100.00
45255;BME280;30989;52.078;21.014;2022-11-24T11:52:45;163504.88;;;-0.93;100.00
45255;BME280;30989;52.078;21.014;2022-11-24T12:03:44;163480.97;;;-1.03;100.00
45255;BME280;30989;52.078;21.014;2022-11-24T12:06:51;163487.59;;;-1.00;100.00
45255;BME280;30989;52.078;21.014;2022-11-24T12:09:40;163486.28;;;-1.01;100.00
45255;BME280;30989;52.078;21.014;2022-11-24T12:15:29;163482.28;;;-1.02;100.00
45255;BME280;30989;52.078;21.014;2022-11-24T12:18:08;163492.91;;;-0.98;100.00
45255;BME280;30989;52.078;21.014;2022-11-24T12:28:56;163500.91;;;-0.95;100.00
45255;BME280;30989;52.078;21.014;2022-11-24T12:39:34;163475.66;;;-1.05;100.00
45255;BME280;30989;52.078;21.014;2022-11-24T12:50:28;163467.69;;;-1.08;100.00
45255;BME280;30989;52.078;21.014;2022-11-24T12:55:40;163467.69;;;-1.08;100.00
45255;BME280;30989;52.078;21.014;2022-11-24T12:58:19;163483.63;;;-1.02;100.00
45255;BME280;30989;52.078;21.014;2022-11-24T13:06:25;163469.00;;;-1.07;100.00
45255;BME280;30989;52.078;21.014;2022-11-24T13:08:52;163441.09;;;-1.18;100.00
45255;BME280;30989;52.078;21.014;2022-11-24T13:16:32;163459.72;;;-1.11;100.00
45255;BME280;30989;52.078;21.014;2022-11-24T13:19:12;163450.41;;;-1.14;100.00
45255;BME280;30989;52.078;21.014;2022-11-24T13:31:52;163451.75;;;-1.14;100.00
45255;BME280;30989;52.078;21.014;2022-11-24T13:53:32;163487.59;;;-1.00;100.00
45255;BME280;30989;52.078;21.014;2022-11-24T13:56:04;163491.59;;;-0.99;100.00
45255;BME280;30989;52.078;21.014;2022-11-24T13:58:36;163459.72;;;-1.11;100.00
45255;BME280;30989;52.078;21.014;2022-11-24T14:03:45;163465.03;;;-1.09;100.00
45255;BME280;30989;52.078;21.014;2022-11-24T14:06:41;163427.81;;;-1.23;100.00
45255;BME280;30989;52.078;21.014;2022-11-24T14:09:27;163438.44;;;-1.19;100.00
45255;BME280;30989;52.078;21.014;2022-11-24T14:14:32;163422.50;;;-1.25;100.00
45255;BME280;30989;52.078;21.014;2022-11-24T14:17:14;163441.09;;;-1.18;100.00
45255;BME280;30989;52.078;21.014;2022-11-24T14:19:40;163441.09;;;-1.18;100.00
45255;BME280;30989;52.078;21.014;2022-11-24T14:22:31;163430.47;;;-1.22;100.00
45255;BME280;30989;52.078;21.014;2022-11-24T14:25:00;163413.22;;;-1.28;100.00
45255;BME280;30989;52.078;21.014;2022-11-24T14:27:35;163421.19;;;-1.25;100.00
45255;BME280;30989;52.078;21.014;2022-11-24T14:32:34;163421.19;;;-1.25;100.00
45255;BME280;30989;52.078;21.014;2022-11-24T14:35:21;163421.19;;;-1.25;100.00
45255;BME280;30989;52.078;21.014;2022-11-24T14:37:46;163403.91;;;-1.32;100.00
45255;BME280;30989;52.078;21.014;2022-11-24T14:40:37;163414.53;;;-1.28;100.00